sensor_id;sensor_type;location;lat;lon;timestamp;pressure;altitude;pressure_sealevel;temperature;humidity
55217;BME280;41086;46.736;15.666;2023-02-19T00:01:38;98651.25;;;-0.34;100.00
55217;BME280;41086;46.736;15.666;2023-02-19T00:06:40;98636.81;;;-0.49;100.00
55217;BME280;41086;46.736;15.666;2023-02-19T00:09:08;98632.34;;;-0.42;100.00
55217;BME280;41086;46.736;15.666;2023-02-19T00:11:35;98628.66;;;-0.34;100.00
55217;BME280;41086;46.736;15.666;2023-02-19T00:14:03;98623.59;;;-0.40;100.00
55217;BME280;41086;46.736;15.666;2023-02-19T00:16:32;98619.25;;;-0.41;100.00
55217;BME280;41086;46.736;15.666;2023-02-19T00:19:01;98641.28;;;-0.54;100.00
55217;BME280;41086;46.736;15.666;2023-02-19T00:21:28;98619.78;;;-0.65;100.00
55217;BME280;41086;46.736;15.666;2023-02-19T00:23:57;98651.72;;;-0.56;100.00
55217;BME280;41086;46.736;15.666;2023-02-19T00:26:25;98659.75;;;-0.67;100.00
55217;BME280;41086;46.736;15.666;2023-02-19T00:28:53;98638.00;;;-0.64;100.00
55217;BME280;41086;46.736;15.666;2023-02-19T00:33:49;98655.09;;;-0.52;100.00
55217;BME280;41086;46.736;15.666;2023-02-19T00:36:16;98651.72;;;-0.57;100.00
55217;BME280;41086;46.736;15.666;2023-02-19T00:38:43;98640.31;;;-0.50;100.00
55217;BME280;41086;46.736;15.666;2023-02-19T00:41:11;98634.16;;;-0.46;100.00
55217;BME280;41086;46.736;15.666;2023-02-19T00:46:28;98649.88;;;-0.51;100.00
55217;BME280;41086;46.736;15.666;2023-02-19T00:48:56;98646.41;;;-0.51;100.00
55217;BME280;41086;46.736;15.666;2023-02-19T00:51:25;98638.53;;;-0.48;100.00
55217;BME280;41086;46.736;15.666;2023-02-19T00:53:53;98638.63;;;-0.53;100.00
55217;BME280;41086;46.736;15.666;2023-02-19T00:56:20;98619.09;;;-0.74;100.00
55217;BME280;41086;46.736;15.666;2023-02-19T00:58:47;98625.22;;;-0.76;100.00
55217;BME280;41086;46.736;15.666;2023-02-19T01:01:14;98633.09;;;-0.78;100.00
55217;BME280;41086;46.736;15.666;2023-02-19T01:03:43;98627.97;;;-0.82;100.00
55217;BME280;41086;46.736;15.666;2023-02-19T01:06:12;98608.91;;;-0.83;100.00
55217;BME280;41086;46.736;15.666;2023-02-19T01:08:40;98624.50;;;-0.81;100.00
55217;BME280;41086;46.736;15.666;2023-02-19T01:11:08;98619.16;;;-0.75;100.00
55217;BME280;41086;46.736;15.666;2023-02-19T01:13:36;98614.56;;;-0.62;100.00
55217;BME280;41086;46.736;15.666;2023-02-19T01:18:30;98621.63;;;-0.69;100.00
55217;BME280;41086;46.736;15.666;2023-02-19T01:20:57;98622.44;;;-0.67;100.00
55217;BME280;41086;46.736;15.666;2023-02-19T01:23:24;98632.00;;;-0.68;100.00
55217;BME280;41086;46.736;15.666;2023-02-19T01:25:51;98624.34;;;-0.75;100.00
55217;BME280;41086;46.736;15.666;2023-02-19T01:28:18;98632.13;;;-0.74;100.00
55217;BME280;41086;46.736;15.666;2023-02-19T01:30:45;98630.13;;;-0.61;100.00
55217;BME280;41086;46.736;15.666;2023-02-19T01:33:12;98637.16;;;-0.66;100.00
55217;BME280;41086;46.736;15.666;2023-02-19T01:35:39;98615.56;;;-0.70;100.00
55217;BME280;41086;46.736;15.666;2023-02-19T01:38:06;98619.00;;;-0.69;100.00
55217;BME280;41086;46.736;15.666;2023-02-19T01:40:34;98627.81;;;-0.76;100.00
55217;BME280;41086;46.736;15.666;2023-02-19T01:43:01;98610.22;;;-0.63;100.00
55217;BME280;41086;46.736;15.666;2023-02-19T01:45:33;98612.06;;;-0.69;100.00
55217;BME280;41086;46.736;15.666;2023-02-19T01:48:13;98605.78;;;-0.60;100.00
55217;BME280;41086;46.736;15.666;2023-02-19T01:51:10;98618.25;;;-0.74;100.00
55217;BME280;41086;46.736;15.666;2023-02-19T01:53:42;98599.34;;;-0.82;100.00
55217;BME280;41086;46.736;15.666;2023-02-19T01:56:12;98592.31;;;-0.79;100.00
55217;BME280;41086;46.736;15.666;2023-02-19T01:58:39;98584.63;;;-0.83;100.00
55217;BME280;41086;46.736;15.666;2023-02-19T02:01:07;98570.72;;;-0.82;100.00
55217;BME280;41086;46.736;15.666;2023-02-19T02:03:36;98591.28;;;-0.70;100.00
55217;BME280;41086;46.736;15.666;2023-02-19T02:08:42;98578.38;;;-0.75;100.00
55217;BME280;41086;46.736;15.666;2023-02-19T02:11:28;98604.03;;;-1.00;100.00
55217;BME280;41086;46.736;15.666;2023-02-19T02:13:55;98565.13;;;-1.06;100.00
55217;BME280;41086;46.736;15.666;2023-02-19T02:17:30;98583.94;;;-0.92;100.00
55217;BME280;41086;46.736;15.666;2023-02-19T02:22:31;98582.84;;;-0.81;100.00
55217;BME280;41086;46.736;15.666;2023-02-19T02:27:58;98561.16;;;-0.82;100.00
55217;BME280;41086;46.736;15.666;2023-02-19T02:30:46;98572.47;;;-0.83;100.00
55217;BME280;41086;46.736;15.666;2023-02-19T02:33:29;98572.38;;;-0.78;100.00
55217;BME280;41086;46.736;15.666;2023-02-19T02:36:13;98567.03;;;-0.72;100.00
55217;BME280;41086;46.736;15.666;2023-02-19T02:38:45;98529.06;;;-0.82;100.00
55217;BME280;41086;46.736;15.666;2023-02-19T02:41:14;98553.25;;;-0.77;100.00
55217;BME280;41086;46.736;15.666;2023-02-19T02:43:41;98557.63;;;-0.79;100.00
55217;BME280;41086;46.736;15.666;2023-02-19T02:46:13;98559.44;;;-0.81;100.00
55217;BME280;41086;46.736;15.666;2023-02-19T02:48:48;98558.47;;;-0.77;100.00
55217;BME280;41086;46.736;15.666;2023-02-19T02:51:35;98564.56;;;-0.78;100.00
55217;BME280;41086;46.736;15.666;2023-02-19T02:57:15;98553.94;;;-0.69;100.00
55217;BME280;41086;46.736;15.666;2023-02-19T02:59:48;98547.84;;;-0.68;100.00
55217;BME280;41086;46.736;15.666;2023-02-19T03:02:22;98561.69;;;-0.66;100.00
55217;BME280;41086;46.736;15.666;2023-02-19T03:10:12;98553.25;;;-0.77;100.00
55217;BME280;41086;46.736;15.666;2023-02-19T03:12:43;98542.94;;;-0.82;100.00
55217;BME280;41086;46.736;15.666;2023-02-19T03:15:34;98560.84;;;-0.68;100.00
55217;BME280;41086;46.736;15.666;2023-02-19T03:18:22;98535.97;;;-0.80;100.00
55217;BME280;41086;46.736;15.666;2023-02-19T03:21:08;98563.53;;;-0.71;100.00
55217;BME280;41086;46.736;15.666;2023-02-19T03:23:37;98557.44;;;-0.70;100.00
55217;BME280;41086;46.736;15.666;2023-02-19T03:26:24;98528.84;;;-0.72;100.00
55217;BME280;41086;46.736;15.666;2023-02-19T03:28:53;98530.53;;;-0.71;100.00
55217;BME280;41086;46.736;15.666;2023-02-19T03:31:42;98539.00;;;-0.61;100.00
55217;BME280;41086;46.736;15.666;2023-02-19T03:34:15;98551.03;;;-0.55;100.00
55217;BME280;41086;46.736;15.666;2023-02-19T03:36:47;98551.88;;;-0.55;100.00
55217;BME280;41086;46.736;15.666;2023-02-19T03:39:19;98538.84;;;-0.53;100.00
55217;BME280;41086;46.736;15.666;2023-02-19T03:41:50;98541.53;;;-0.58;100.00
55217;BME280;41086;46.736;15.666;2023-02-19T03:44:44;98542.34;;;-0.54;100.00
55217;BME280;41086;46.736;15.666;2023-02-19T03:47:32;98547.50;;;-0.53;100.00
55217;BME280;41086;46.736;15.666;2023-02-19T03:59:42;98533.63;;;-0.53;100.00
55217;BME280;41086;46.736;15.666;2023-02-19T04:02:15;98520.94;;;-0.67;100.00
55217;BME280;41086;46.736;15.666;2023-02-19T04:04:50;98511.41;;;-0.68;100.00
55217;BME280;41086;46.736;15.666;2023-02-19T04:07:21;98546.13;;;-0.68;100.00
55217;BME280;41086;46.736;15.666;2023-02-19T04:09:50;98528.59;;;-0.61;100.00
55217;BME280;41086;46.736;15.666;2023-02-19T04:12:20;98498.63;;;-0.79;100.00
55217;BME280;41086;46.736;15.666;2023-02-19T04:14:59;98527.69;;;-0.60;100.00
55217;BME280;41086;46.736;15.666;2023-02-19T04:17:41;98536.56;;;-0.67;100.00
55217;BME280;41086;46.736;15.666;2023-02-19T04:20:12;98524.47;;;-0.70;100.00
55217;BME280;41086;46.736;15.666;2023-02-19T04:22:40;98520.84;;;-0.62;100.00
55217;BME280;41086;46.736;15.666;2023-02-19T04:25:07;98527.91;;;-0.69;100.00
55217;BME280;41086;46.736;15.666;2023-02-19T04:27:36;98520.03;;;-0.66;100.00
55217;BME280;41086;46.736;15.666;2023-02-19T04:30:05;98513.03;;;-0.62;100.00
55217;BME280;41086;46.736;15.666;2023-02-19T04:32:32;98500.06;;;-0.65;100.00
55217;BME280;41086;46.736;15.666;2023-02-19T04:34:59;98509.44;;;-0.57;100.00
55217;BME280;41086;46.736;15.666;2023-02-19T04:37:26;98512.06;;;-0.58;100.00
55217;BME280;41086;46.736;15.666;2023-02-19T04:39:53;98510.44;;;-0.62;100.00
55217;BME280;41086;46.736;15.666;2023-02-19T04:42:19;98510.34;;;-0.59;100.00
55217;BME280;41086;46.736;15.666;2023-02-19T04:44:46;98518.88;;;-0.53;100.00
55217;BME280;41086;46.736;15.666;2023-02-19T04:47:13;98490.56;;;-0.67;100.00
55217;BME280;41086;46.736;15.666;2023-02-19T04:49:44;98509.28;;;-0.51;100.00
55217;BME280;41086;46.736;15.666;2023-02-19T04:52:10;98491.13;;;-0.54;100.00
55217;BME280;41086;46.736;15.666;2023-02-19T04:54:37;98488.56;;;-0.55;100.00
55217;BME280;41086;46.736;15.666;2023-02-19T04:57:04;98507.63;;;-0.55;100.00
55217;BME280;41086;46.736;15.666;2023-02-19T04:59:31;98453.00;;;-0.92;100.00
55217;BME280;41086;46.736;15.666;2023-02-19T05:01:58;98498.28;;;-0.62;100.00
55217;BME280;41086;46.736;15.666;2023-02-19T05:04:24;98503.16;;;-0.50;100.00
55217;BME280;41086;46.736;15.666;2023-02-19T05:06:51;98498.34;;;-0.65;100.00
55217;BME280;41086;46.736;15.666;2023-02-19T05:09:18;98509.28;;;-0.51;100.00
55217;BME280;41086;46.736;15.666;2023-02-19T05:11:45;98500.47;;;-0.45;100.00
55217;BME280;41086;46.736;15.666;2023-02-19T05:14:12;98510.03;;;-0.46;100.00
55217;BME280;41086;46.736;15.666;2023-02-19T05:16:39;98490.88;;;-0.43;100.00
55217;BME280;41086;46.736;15.666;2023-02-19T05:19:05;98506.50;;;-0.43;100.00
55217;BME280;41086;46.736;15.666;2023-02-19T05:21:32;98506.53;;;-0.45;100.00
55217;BME280;41086;46.736;15.666;2023-02-19T05:23:59;98513.44;;;-0.43;100.00
55217;BME280;41086;46.736;15.666;2023-02-19T05:26:26;98520.53;;;-0.50;100.00
55217;BME280;41086;46.736;15.666;2023-02-19T05:28:52;98510.03;;;-0.46;100.00
55217;BME280;41086;46.736;15.666;2023-02-19T05:31:20;98515.19;;;-0.44;100.00
55217;BME280;41086;46.736;15.666;2023-02-19T05:33:47;98500.91;;;-0.63;100.00
55217;BME280;41086;46.736;15.666;2023-02-19T05:36:18;98514.41;;;-0.48;100.00
55217;BME280;41086;46.736;15.666;2023-02-19T05:38:46;98515.09;;;-0.41;100.00
55217;BME280;41086;46.736;15.666;2023-02-19T05:41:14;98507.44;;;-0.47;100.00
55217;BME280;41086;46.736;15.666;2023-02-19T05:43:43;98488.53;;;-0.54;100.00
55217;BME280;41086;46.736;15.666;2023-02-19T05:46:12;98494.66;;;-0.56;100.00
55217;BME280;41086;46.736;15.666;2023-02-19T05:48:39;98487.63;;;-0.53;100.00
55217;BME280;41086;46.736;15.666;2023-02-19T05:51:08;98481.47;;;-0.49;100.00
55217;BME280;41086;46.736;15.666;2023-02-19T05:53:36;98504.91;;;-0.49;100.00
55217;BME280;41086;46.736;15.666;2023-02-19T05:56:04;98513.25;;;-0.36;100.00
55217;BME280;41086;46.736;15.666;2023-02-19T05:58:41;98505.34;;;-0.33;100.00
55217;BME280;41086;46.736;15.666;2023-02-19T06:01:17;98513.25;;;-0.36;100.00
55217;BME280;41086;46.736;15.666;2023-02-19T06:03:44;98508.63;;;-0.60;100.00
55217;BME280;41086;46.736;15.666;2023-02-19T06:06:16;98514.16;;;-0.37;100.00
55217;BME280;41086;46.736;15.666;2023-02-19T06:08:44;98516.44;;;-0.25;100.00
55217;BME280;41086;46.736;15.666;2023-02-19T06:11:11;98527.63;;;-0.19;100.00
55217;BME280;41086;46.736;15.666;2023-02-19T06:13:38;98524.81;;;-0.10;100.00
55217;BME280;41086;46.736;15.666;2023-02-19T06:16:06;98532.44;;;-0.03;100.00
55217;BME280;41086;46.736;15.666;2023-02-19T06:18:34;98538.31;;;0.04;100.00
55217;BME280;41086;46.736;15.666;2023-02-19T06:21:05;98530.50;;;0.04;100.00
55217;BME280;41086;46.736;15.666;2023-02-19T06:23:33;98514.88;;;0.04;100.00
55217;BME280;41086;46.736;15.666;2023-02-19T06:26:20;98532.09;;;0.10;100.00
55217;BME280;41086;46.736;15.666;2023-02-19T06:28:49;98523.53;;;0.05;100.00
55217;BME280;41086;46.736;15.666;2023-02-19T06:31:18;98537.28;;;0.11;100.00
55217;BME280;41086;46.736;15.666;2023-02-19T06:33:45;98525.19;;;0.09;100.00
55217;BME280;41086;46.736;15.666;2023-02-19T06:36:14;98501.53;;;-0.18;100.00
55217;BME280;41086;46.736;15.666;2023-02-19T06:38:42;98534.97;;;-0.01;100.00
55217;BME280;41086;46.736;15.666;2023-02-19T06:41:10;98553.28;;;-0.03;100.00
55217;BME280;41086;46.736;15.666;2023-02-19T06:43:38;98550.69;;;-0.04;100.00
55217;BME280;41086;46.736;15.666;2023-02-19T06:46:06;98553.31;;;-0.06;100.00
55217;BME280;41086;46.736;15.666;2023-02-19T06:48:34;98533.53;;;-0.13;100.00
55217;BME280;41086;46.736;15.666;2023-02-19T06:51:01;98556.66;;;0.01;100.00
55217;BME280;41086;46.736;15.666;2023-02-19T06:53:28;98551.94;;;0.15;100.00
55217;BME280;41086;46.736;15.666;2023-02-19T06:56:03;98556.38;;;0.12;100.00
55217;BME280;41086;46.736;15.666;2023-02-19T06:58:31;98557.56;;;0.00;100.00
55217;BME280;41086;46.736;15.666;2023-02-19T07:00:58;98562.69;;;0.03;100.00
55217;BME280;41086;46.736;15.666;2023-02-19T07:03:26;98565.97;;;0.11;100.00
55217;BME280;41086;46.736;15.666;2023-02-19T07:05:58;98553.88;;;0.07;100.00
55217;BME280;41086;46.736;15.666;2023-02-19T07:08:25;98564.88;;;0.18;100.00
55217;BME280;41086;46.736;15.666;2023-02-19T07:10:57;98563.84;;;0.26;100.00
55217;BME280;41086;46.736;15.666;2023-02-19T07:13:25;98550.91;;;0.22;100.00
55217;BME280;41086;46.736;15.666;2023-02-19T07:16:07;98552.38;;;0.33;100.00
55217;BME280;41086;46.736;15.666;2023-02-19T07:18:35;98561.34;;;0.54;100.00
55217;BME280;41086;46.736;15.666;2023-02-19T07:21:09;98567.19;;;0.63;100.00
55217;BME280;41086;46.736;15.666;2023-02-19T07:23:37;98552.19;;;0.72;100.00
55217;BME280;41086;46.736;15.666;2023-02-19T07:26:06;98556.34;;;0.79;100.00
55217;BME280;41086;46.736;15.666;2023-02-19T07:28:33;98539.66;;;0.84;100.00
55217;BME280;41086;46.736;15.666;2023-02-19T07:31:01;98551.59;;;0.93;100.00
55217;BME280;41086;46.736;15.666;2023-02-19T07:33:32;98556.84;;;0.92;100.00
55217;BME280;41086;46.736;15.666;2023-02-19T07:36:04;98579.75;;;0.82;100.00
55217;BME280;41086;46.736;15.666;2023-02-19T07:38:32;98579.25;;;0.68;100.00
55217;BME280;41086;46.736;15.666;2023-02-19T07:41:01;98556.78;;;0.62;100.00
55217;BME280;41086;46.736;15.666;2023-02-19T07:43:30;98547.19;;;0.62;100.00
55217;BME280;41086;46.736;15.666;2023-02-19T07:45:58;98552.81;;;0.80;100.00
55217;BME280;41086;46.736;15.666;2023-02-19T07:48:27;98550.03;;;0.86;100.00
55217;BME280;41086;46.736;15.666;2023-02-19T07:50:55;98540.06;;;1.00;100.00
55217;BME280;41086;46.736;15.666;2023-02-19T07:53:25;98531.22;;;1.06;100.00
55217;BME280;41086;46.736;15.666;2023-02-19T07:55:57;98559.75;;;1.12;100.00
55217;BME280;41086;46.736;15.666;2023-02-19T07:58:25;98549.88;;;1.22;100.00
55217;BME280;41086;46.736;15.666;2023-02-19T08:00:52;98537.28;;;1.36;100.00
55217;BME280;41086;46.736;15.666;2023-02-19T08:03:20;98521.09;;;1.51;100.00
55217;BME280;41086;46.736;15.666;2023-02-19T08:05:47;98545.13;;;1.63;100.00
55217;BME280;41086;46.736;15.666;2023-02-19T08:08:18;98535.97;;;1.77;100.00
55217;BME280;41086;46.736;15.666;2023-02-19T08:10:47;98500.94;;;1.83;100.00
55217;BME280;41086;46.736;15.666;2023-02-19T08:13:33;98515.59;;;1.87;100.00
55217;BME280;41086;46.736;15.666;2023-02-19T08:18:47;98562.84;;;1.81;100.00
55217;BME280;41086;46.736;15.666;2023-02-19T08:21:15;98544.31;;;1.89;100.00
55217;BME280;41086;46.736;15.666;2023-02-19T08:23:47;98549.31;;;1.95;100.00
55217;BME280;41086;46.736;15.666;2023-02-19T08:26:17;98525.66;;;1.99;100.00
55217;BME280;41086;46.736;15.666;2023-02-19T08:28:44;98543.50;;;2.13;100.00
55217;BME280;41086;46.736;15.666;2023-02-19T08:31:19;98556.06;;;2.29;100.00
55217;BME280;41086;46.736;15.666;2023-02-19T08:33:47;98560.97;;;2.38;100.00
55217;BME280;41086;46.736;15.666;2023-02-19T08:36:16;98552.72;;;2.50;100.00
55217;BME280;41086;46.736;15.666;2023-02-19T08:38:45;98554.31;;;2.54;100.00
55217;BME280;41086;46.736;15.666;2023-02-19T08:41:14;98587.47;;;2.54;100.00
55217;BME280;41086;46.736;15.666;2023-02-19T08:43:44;98570.16;;;2.75;100.00
55217;BME280;41086;46.736;15.666;2023-02-19T08:46:16;98585.09;;;2.96;100.00
55217;BME280;41086;46.736;15.666;2023-02-19T08:48:44;98585.44;;;3.10;100.00
55217;BME280;41086;46.736;15.666;2023-02-19T08:51:11;98567.44;;;3.25;100.00
55217;BME280;41086;46.736;15.666;2023-02-19T08:53:40;98592.13;;;3.43;100.00
55217;BME280;41086;46.736;15.666;2023-02-19T08:56:10;98587.84;;;3.40;100.00
55217;BME280;41086;46.736;15.666;2023-02-19T08:58:40;98577.69;;;3.54;100.00
55217;BME280;41086;46.736;15.666;2023-02-19T09:01:12;98578.78;;;3.71;100.00
55217;BME280;41086;46.736;15.666;2023-02-19T09:03:42;98631.22;;;3.47;100.00
55217;BME280;41086;46.736;15.666;2023-02-19T09:06:17;98597.34;;;3.43;100.00
55217;BME280;41086;46.736;15.666;2023-02-19T09:08:45;98585.78;;;3.48;100.00
55217;BME280;41086;46.736;15.666;2023-02-19T09:11:11;98608.50;;;3.24;100.00
55217;BME280;41086;46.736;15.666;2023-02-19T09:13:39;98600.03;;;3.41;100.00
55217;BME280;41086;46.736;15.666;2023-02-19T09:16:06;98612.97;;;3.46;100.00
55217;BME280;41086;46.736;15.666;2023-02-19T09:18:34;98617.00;;;3.54;100.00
55217;BME280;41086;46.736;15.666;2023-02-19T09:21:03;98613.28;;;3.60;100.00
55217;BME280;41086;46.736;15.666;2023-02-19T09:23:35;98609.97;;;3.55;100.00
55217;BME280;41086;46.736;15.666;2023-02-19T09:26:10;98588.69;;;3.64;100.00
55217;BME280;41086;46.736;15.666;2023-02-19T09:28:43;98598.06;;;3.70;100.00
55217;BME280;41086;46.736;15.666;2023-02-19T09:31:14;98585.38;;;3.81;100.00
55217;BME280;41086;46.736;15.666;2023-02-19T09:33:43;98600.19;;;4.04;100.00
55217;BME280;41086;46.736;15.666;2023-02-19T09:36:11;98599.31;;;4.26;100.00
55217;BME280;41086;46.736;15.666;2023-02-19T09:38:39;98619.69;;;4.41;100.00
55217;BME280;41086;46.736;15.666;2023-02-19T09:41:11;98600.69;;;4.56;100.00
55217;BME280;41086;46.736;15.666;2023-02-19T09:43:41;98603.91;;;4.83;100.00
55217;BME280;41086;46.736;15.666;2023-02-19T09:48:47;98628.63;;;5.19;100.00
55217;BME280;41086;46.736;15.666;2023-02-19T09:51:15;98629.56;;;5.37;100.00
55217;BME280;41086;46.736;15.666;2023-02-19T09:53:45;98632.22;;;5.74;100.00
55217;BME280;41086;46.736;15.666;2023-02-19T09:56:15;98616.41;;;6.12;100.00
55217;BME280;41086;46.736;15.666;2023-02-19T09:58:48;98622.66;;;6.98;100.00
55217;BME280;41086;46.736;15.666;2023-02-19T10:01:16;98630.53;;;7.49;100.00
55217;BME280;41086;46.736;15.666;2023-02-19T10:03:46;98636.22;;;7.90;100.00
55217;BME280;41086;46.736;15.666;2023-02-19T10:06:25;98638.63;;;8.57;100.00
55217;BME280;41086;46.736;15.666;2023-02-19T10:09:22;98636.84;;;8.87;100.00
55217;BME280;41086;46.736;15.666;2023-02-19T10:11:53;98619.03;;;9.05;100.00
55217;BME280;41086;46.736;15.666;2023-02-19T10:16:58;98617.91;;;9.52;100.00
55217;BME280;41086;46.736;15.666;2023-02-19T10:19:26;98614.03;;;10.14;100.00
55217;BME280;41086;46.736;15.666;2023-02-19T10:21:53;98595.53;;;10.41;100.00
55217;BME280;41086;46.736;15.666;2023-02-19T10:24:25;98618.25;;;10.58;100.00
55217;BME280;41086;46.736;15.666;2023-02-19T10:26:53;98609.53;;;10.83;100.00
55217;BME280;41086;46.736;15.666;2023-02-19T10:29:20;98605.09;;;11.35;100.00
55217;BME280;41086;46.736;15.666;2023-02-19T10:31:47;98603.25;;;11.86;100.00
55217;BME280;41086;46.736;15.666;2023-02-19T10:34:20;98612.16;;;12.46;100.00
55217;BME280;41086;46.736;15.666;2023-02-19T10:36:49;98616.66;;;12.92;77.45
55217;BME280;41086;46.736;15.666;2023-02-19T10:41:50;98603.59;;;13.58;77.63
55217;BME280;41086;46.736;15.666;2023-02-19T10:44:20;98610.66;;;14.14;80.75
55217;BME280;41086;46.736;15.666;2023-02-19T10:46:51;98606.59;;;14.53;72.37
55217;BME280;41086;46.736;15.666;2023-02-19T10:49:30;98598.13;;;14.80;69.94
55217;BME280;41086;46.736;15.666;2023-02-19T10:52:20;98594.53;;;14.91;67.24
55217;BME280;41086;46.736;15.666;2023-02-19T10:55:14;98599.94;;;15.01;67.71
55217;BME280;41086;46.736;15.666;2023-02-19T10:57:41;98600.38;;;15.27;67.11
55217;BME280;41086;46.736;15.666;2023-02-19T11:02:42;98602.09;;;15.59;64.14
55217;BME280;41086;46.736;15.666;2023-02-19T11:07:56;98588.25;;;16.15;65.13
55217;BME280;41086;46.736;15.666;2023-02-19T11:12:51;98580.97;;;16.85;55.94
55217;BME280;41086;46.736;15.666;2023-02-19T11:15:21;98591.94;;;17.11;56.85
55217;BME280;41086;46.736;15.666;2023-02-19T11:17:58;98573.63;;;16.68;55.28
55217;BME280;41086;46.736;15.666;2023-02-19T11:20:25;98586.44;;;16.35;54.27
55217;BME280;41086;46.736;15.666;2023-02-19T11:23:00;98559.22;;;16.01;56.65
55217;BME280;41086;46.736;15.666;2023-02-19T11:25:29;98560.63;;;16.14;57.35
55217;BME280;41086;46.736;15.666;2023-02-19T11:28:04;98565.03;;;16.54;54.66
55217;BME280;41086;46.736;15.666;2023-02-19T11:35:52;98574.44;;;17.17;51.51
55217;BME280;41086;46.736;15.666;2023-02-19T11:38:20;98567.69;;;17.03;51.71
55217;BME280;41086;46.736;15.666;2023-02-19T11:46:02;98548.63;;;17.63;53.15
55217;BME280;41086;46.736;15.666;2023-02-19T11:56:35;98540.25;;;18.39;52.58
55217;BME280;41086;46.736;15.666;2023-02-19T11:59:21;98543.16;;;18.64;49.58
55217;BME280;41086;46.736;15.666;2023-02-19T12:10:12;98530.91;;;18.61;49.61
55217;BME280;41086;46.736;15.666;2023-02-19T12:21:54;98540.94;;;19.55;48.30
55217;BME280;41086;46.736;15.666;2023-02-19T12:24:41;98544.94;;;19.77;48.38
55217;BME280;41086;46.736;15.666;2023-02-19T12:30:45;98537.09;;;20.00;46.18
55217;BME280;41086;46.736;15.666;2023-02-19T12:42:00;98552.63;;;20.14;44.89
55217;BME280;41086;46.736;15.666;2023-02-19T12:44:41;98553.66;;;20.38;43.87
55217;BME280;41086;46.736;15.666;2023-02-19T12:47:21;98550.72;;;20.57;43.12
55217;BME280;41086;46.736;15.666;2023-02-19T12:50:04;98547.34;;;20.72;44.09
55217;BME280;41086;46.736;15.666;2023-02-19T12:52:35;98549.69;;;20.83;44.25
55217;BME280;41086;46.736;15.666;2023-02-19T12:55:23;98540.44;;;20.69;42.75
55217;BME280;41086;46.736;15.666;2023-02-19T12:57:52;98544.38;;;20.24;44.23
55217;BME280;41086;46.736;15.666;2023-02-19T13:00:40;98539.13;;;19.98;43.37
55217;BME280;41086;46.736;15.666;2023-02-19T13:03:30;98544.88;;;20.11;42.04
55217;BME280;41086;46.736;15.666;2023-02-19T13:11:35;98530.00;;;19.83;41.37
55217;BME280;41086;46.736;15.666;2023-02-19T13:14:29;98525.91;;;19.36;43.61
55217;BME280;41086;46.736;15.666;2023-02-19T13:17:23;98524.59;;;19.75;42.29
55217;BME280;41086;46.736;15.666;2023-02-19T13:19:57;98524.13;;;19.53;42.43
55217;BME280;41086;46.736;15.666;2023-02-19T13:22:33;98526.06;;;20.20;42.34
55217;BME280;41086;46.736;15.666;2023-02-19T13:25:25;98515.13;;;20.21;41.41
55217;BME280;41086;46.736;15.666;2023-02-19T13:28:05;98514.69;;;19.83;41.99
55217;BME280;41086;46.736;15.666;2023-02-19T13:31:03;98517.47;;;20.16;42.57
55217;BME280;41086;46.736;15.666;2023-02-19T13:33:55;98503.78;;;19.77;42.08
55217;BME280;41086;46.736;15.666;2023-02-19T13:36:28;98523.66;;;20.00;41.49
55217;BME280;41086;46.736;15.666;2023-02-19T13:38:56;98521.09;;;19.82;42.09
55217;BME280;41086;46.736;15.666;2023-02-19T13:41:39;98514.47;;;19.00;42.95
55217;BME280;41086;46.736;15.666;2023-02-19T13:44:16;98508.69;;;17.97;46.14
55217;BME280;41086;46.736;15.666;2023-02-19T13:46:46;98516.41;;;17.72;46.45
55217;BME280;41086;46.736;15.666;2023-02-19T13:54:31;98507.69;;;16.96;40.73
55217;BME280;41086;46.736;15.666;2023-02-19T13:59:44;98507.16;;;17.30;46.55
55217;BME280;41086;46.736;15.666;2023-02-19T14:02:27;98514.19;;;17.40;43.62
55217;BME280;41086;46.736;15.666;2023-02-19T14:05:03;98513.09;;;17.23;47.25
55217;BME280;41086;46.736;15.666;2023-02-19T14:07:48;98507.38;;;17.09;46.45
55217;BME280;41086;46.736;15.666;2023-02-19T14:10:51;98524.25;;;17.19;47.17
55217;BME280;41086;46.736;15.666;2023-02-19T14:30:57;98538.91;;;17.15;44.51
55217;BME280;41086;46.736;15.666;2023-02-19T14:33:32;98571.16;;;17.23;45.96
55217;BME280;41086;46.736;15.666;2023-02-19T14:38:59;98582.22;;;16.91;46.53
55217;BME280;41086;46.736;15.666;2023-02-19T14:41:31;98584.47;;;16.76;46.01
55217;BME280;41086;46.736;15.666;2023-02-19T14:44:02;98579.41;;;16.63;47.34
55217;BME280;41086;46.736;15.666;2023-02-19T14:46:36;98592.78;;;16.53;46.50
55217;BME280;41086;46.736;15.666;2023-02-19T14:49:23;98598.16;;;17.02;46.40
55217;BME280;41086;46.736;15.666;2023-02-19T14:51:57;98596.75;;;16.78;46.14
55217;BME280;41086;46.736;15.666;2023-02-19T14:54:34;98600.97;;;16.61;46.05
55217;BME280;41086;46.736;15.666;2023-02-19T14:57:04;98610.50;;;16.45;46.06
55217;BME280;41086;46.736;15.666;2023-02-19T14:59:33;98614.25;;;16.23;49.62
55217;BME280;41086;46.736;15.666;2023-02-19T15:02:11;98617.97;;;15.60;49.24
55217;BME280;41086;46.736;15.666;2023-02-19T15:04:38;98631.84;;;15.44;49.94
55217;BME280;41086;46.736;15.666;2023-02-19T15:07:06;98641.66;;;15.44;50.04
55217;BME280;41086;46.736;15.666;2023-02-19T15:09:40;98634.50;;;15.44;51.15
55217;BME280;41086;46.736;15.666;2023-02-19T15:12:14;98652.97;;;15.57;51.26
55217;BME280;41086;46.736;15.666;2023-02-19T15:14:44;98653.19;;;15.44;51.89
55217;BME280;41086;46.736;15.666;2023-02-19T15:17:15;98653.13;;;15.14;48.47
55217;BME280;41086;46.736;15.666;2023-02-19T15:19:45;98653.31;;;15.01;48.79
55217;BME280;41086;46.736;15.666;2023-02-19T15:22:21;98673.22;;;14.97;48.20
55217;BME280;41086;46.736;15.666;2023-02-19T15:24:50;98668.69;;;14.76;49.46
55217;BME280;41086;46.736;15.666;2023-02-19T15:27:18;98682.13;;;14.86;51.55